This is the latest recevied weather packets stored in our database for station/object SP6YY-15. If no packets are shown the sender has not sent any weather packets the latest 10 day(s).
| Time | Temp. | Humidity | Pressure | Rain* | Wind** | Luminosity | Snow |
|---|---|---|---|---|---|---|---|
| 1788249605 | 31.11° C | 33% | 1004.8 hPa | - | - | - | - |
| 1788249304 | 31.11° C | 33% | 1004.7 hPa | - | - | - | - |
| 1788249004 | 30.56° C | 33% | 1004.7 hPa | - | - | - | - |
| 1788248704 | 30.56° C | 33% | 1004.7 hPa | - | - | - | - |
| 1788248404 | 30.56° C | 33% | 1004.7 hPa | - | - | - | - |
| 1788248104 | 30° C | 32% | 1004.8 hPa | - | - | - | - |
| 1788247804 | 30° C | 33% | 1004.6 hPa | - | - | - | - |
| 1788247504 | 30° C | 33% | 1004.6 hPa | - | - | - | - |
| 1788247204 | 29.44° C | 33% | 1004.6 hPa | - | - | - | - |
| 1788246904 | 29.44° C | 32% | 1004.5 hPa | - | - | - | - |
| 1788246605 | 29.44° C | 32% | 1004.5 hPa | - | - | - | - |
| 1788246304 | 28.89° C | 32% | 1004.5 hPa | - | - | - | - |
| 1788246004 | 28.89° C | 32% | 1004.5 hPa | - | - | - | - |
| 1788245704 | 28.89° C | 32% | 1004.5 hPa | - | - | - | - |
| 1788245404 | 28.89° C | 31% | 1004.4 hPa | - | - | - | - |
| 1788245104 | 28.33° C | 31% | 1004.4 hPa | - | - | - | - |
| 1788244804 | 28.33° C | 31% | 1004.4 hPa | - | - | - | - |
| 1788244504 | 28.33° C | 30% | 1004.3 hPa | - | - | - | - |
| 1788244204 | 28.33° C | 30% | 1004.3 hPa | - | - | - | - |
| 1788243904 | 28.89° C | 29% | 1004.1 hPa | - | - | - | - |
| 1788243604 | 29.44° C | 28% | 1004.2 hPa | - | - | - | - |
| 1788243304 | 30.56° C | 26% | 1004.4 hPa | - | - | - | - |
| 1788242390 | 32.22° C | 20% | 1004.6 hPa | - | - | - | - |
| 1788241788 | 30.56° C | 22% | 1004.3 hPa | - | - | - | - |
| 1788191626 | 30° C | 19% | 1000.7 hPa | - | - | - | - |
* Rain since midnight (hover to see other rain measurements)
** Current wind speed in m/s (hover to see current wind gust speed)